LPMA/FNC METAR and TAF weather

Enter ICAO airport designator
Station Type Date Time Source
LPMA METAR 2020/12/01 21:30 UTC NOAA

LPMA 012130Z 21018KT 9999 -SHRA SCT015 FEW016CB 19/15 Q1010


Station Type Date Time Source
LPMA Decoded METAR 2020/12/01 21:30 UTC NOAA

Aeroporto Da Madeira, Portugal (LPMA) 32-41-52N 016-46-28W
Dec 01, 2020 - 04:30 PM EST / 2020.12.01 2130 UTC
Wind: from the SSW (210 degrees) at 21 MPH (18 KT):0
Visibility: greater than 7 mile(s):0
Sky conditions: partly cloudy
Weather: light rain showers; Cumulonimbus clouds observed
Temperature: 66 F (19 C)
Dew Point: 59 F (15 C)
Relative Humidity: 77%
Pressure (altimeter): 29.83 in. Hg (1010 hPa)
ob: LPMA 012130Z 21018KT 9999 -SHRA SCT015 FEW016CB 19/15 Q1010
cycle: 21

Station Type Date Time Source
LPMA TAF 2020/12/01 18:18 UTC NOAA

TAF LPMA 011700Z 0118/0218 22018KT 9999 SCT015 FEW018CB
TEMPO 0118/0210 23023G35KT 5000 SHRA BKN013 FEW015CB PROB40
TEMPO 0118/0218 3000 +TSRA BKN008 SCT015CB
BECMG 0210/0212 18010KT

Example: see airport list